createdAt,value
2019-04-29T00:00:13.317Z,8.63
2019-04-29T00:02:43.863Z,8.23
2019-04-29T00:05:15.337Z,8.10
2019-04-29T00:07:45.857Z,8.30
2019-04-29T00:10:19.344Z,8.83
2019-04-29T00:12:50.006Z,8.30
2019-04-29T00:15:37.414Z,7.87
2019-04-29T00:18:12.162Z,8.70
2019-04-29T00:20:44.153Z,8.30
2019-04-29T00:23:14.578Z,8.03
2019-04-29T00:25:45.243Z,8.00
2019-04-29T00:28:16.245Z,8.43
2019-04-29T00:30:47.186Z,8.70
2019-04-29T00:33:17.531Z,8.87
2019-04-29T00:35:47.980Z,8.03
2019-04-29T00:38:29.248Z,8.13
2019-04-29T00:41:03.930Z,8.47
2019-04-29T00:43:38.613Z,8.60
2019-04-29T00:46:09.308Z,8.10
2019-04-29T00:48:39.780Z,8.53
2019-04-29T00:51:10.325Z,9.10
2019-04-29T00:53:41.469Z,9.10
2019-04-29T00:56:11.817Z,8.90
2019-04-29T00:58:42.263Z,9.00
2019-04-29T01:01:14.215Z,8.53
2019-04-29T01:03:44.784Z,8.17
2019-04-29T01:06:15.221Z,8.83
2019-04-29T01:08:45.815Z,8.43
2019-04-29T01:11:16.289Z,9.40
2019-04-29T01:13:46.607Z,8.70
2019-04-29T01:16:17.019Z,8.40
2019-04-29T01:18:47.484Z,8.40
2019-04-29T01:21:19.088Z,7.87
2019-04-29T01:23:49.505Z,8.00
2019-04-29T01:26:24.474Z,8.17
2019-04-29T01:28:56.529Z,8.33
2019-04-29T01:31:28.730Z,8.90
2019-04-29T01:34:00.709Z,8.30
2019-04-29T01:36:35.660Z,8.70
2019-04-29T01:39:08.719Z,8.07
2019-04-29T01:41:40.655Z,10.37
2019-04-29T01:44:11.893Z,10.50
2019-04-29T01:46:42.287Z,11.10
2019-04-29T01:49:12.729Z,8.93
2019-04-29T01:51:43.141Z,9.98
2019-04-29T01:54:13.647Z,9.33
2019-04-29T01:56:44.043Z,8.70
2019-04-29T01:59:14.421Z,8.87
2019-04-29T02:01:44.997Z,8.43
2019-04-29T02:04:15.384Z,7.53
2019-04-29T02:06:45.856Z,8.20
2019-04-29T02:09:17.894Z,7.97
2019-04-29T02:11:48.321Z,9.10
2019-04-29T02:14:18.762Z,8.87
2019-04-29T02:16:49.200Z,9.97
2019-04-29T02:19:19.571Z,9.27
2019-04-29T02:22:09.682Z,7.70
2019-04-29T02:24:51.312Z,8.20
2019-04-29T02:27:21.886Z,7.03
2019-04-29T02:29:52.279Z,7.67
2019-04-29T02:32:22.693Z,7.83
2019-04-29T02:34:57.299Z,7.30
2019-04-29T02:37:32.362Z,8.47
2019-04-29T02:40:05.427Z,7.10
2019-04-29T02:42:37.541Z,8.20
2019-04-29T02:45:13.167Z,8.37
2019-04-29T02:47:45.105Z,7.40
2019-04-29T02:50:15.705Z,7.27
2019-04-29T02:52:46.270Z,8.35
2019-04-29T02:55:21.271Z,7.37
2019-04-29T02:57:59.088Z,6.87
2019-04-29T03:00:31.152Z,8.23
2019-04-29T03:03:09.163Z,9.43
2019-04-29T03:05:41.411Z,9.10
2019-04-29T03:08:15.245Z,9.03
2019-04-29T03:10:45.307Z,9.60
2019-04-29T03:13:17.876Z,10.13
2019-04-29T03:15:50.055Z,8.97
2019-04-29T03:18:22.263Z,9.53
2019-04-29T03:20:57.401Z,8.93
2019-04-29T03:23:28.046Z,8.93
2019-04-29T03:25:58.605Z,8.70
2019-04-29T03:28:29.116Z,8.63
2019-04-29T03:30:59.605Z,8.60
2019-04-29T03:33:30.134Z,9.20
2019-04-29T03:36:00.678Z,9.17
2019-04-29T03:38:31.377Z,8.83
2019-04-29T03:41:03.811Z,8.83
2019-04-29T03:43:34.290Z,7.87
2019-04-29T03:48:03.320Z,7.67
2019-04-29T03:49:17.218Z,7.67
2019-04-29T03:51:49.492Z,7.53
2019-04-29T03:54:21.167Z,7.37
2019-04-29T03:56:52.870Z,7.90
2019-04-29T03:59:23.306Z,7.20
2019-04-29T04:02:12.076Z,7.80
2019-04-29T04:05:00.649Z,7.92
2019-04-29T04:07:32.643Z,8.13
2019-04-29T04:10:03.146Z,9.88
2019-04-29T04:12:33.677Z,9.33
2019-04-29T04:15:06.461Z,8.55
2019-04-29T04:17:51.640Z,8.65
2019-04-29T04:20:22.570Z,7.55
2019-04-29T04:22:55.371Z,7.50
2019-04-29T04:25:27.511Z,7.67
2019-04-29T04:27:58.334Z,6.97
2019-04-29T04:30:28.812Z,6.67
2019-04-29T04:32:59.368Z,6.40
2019-04-29T04:35:34.343Z,7.10
2019-04-29T04:38:06.357Z,6.40
2019-04-29T04:40:41.442Z,6.00
2019-04-29T04:43:12.017Z,5.75
2019-04-29T04:45:42.453Z,6.58
2019-04-29T04:48:14.406Z,6.05
2019-04-29T04:50:44.921Z,6.30
2019-04-29T04:53:15.479Z,7.03
2019-04-29T04:55:47.488Z,6.53
2019-04-29T04:58:17.973Z,7.92
2019-04-29T05:00:48.343Z,7.42
2019-04-29T05:03:18.805Z,10.60
2019-04-29T05:05:50.559Z,7.35
2019-04-29T05:08:21.251Z,7.78
2019-04-29T05:10:51.889Z,8.73
2019-04-29T05:13:28.508Z,10.40
2019-04-29T05:15:58.117Z,10.68
2019-04-29T05:18:34.285Z,9.90
2019-04-29T05:21:04.857Z,11.28
2019-04-29T05:23:35.294Z,13.15
2019-04-29T05:26:05.678Z,15.38
2019-04-29T05:28:37.327Z,14.80
2019-04-29T05:31:07.756Z,14.33
2019-04-29T05:33:38.232Z,14.85
2019-04-29T05:36:13.530Z,14.58
2019-04-29T05:38:54.863Z,18.17
2019-04-29T05:41:25.426Z,15.35
2019-04-29T05:44:00.572Z,15.93
2019-04-29T05:46:32.775Z,14.28
2019-04-29T05:49:07.161Z,15.43
2019-04-29T05:51:43.032Z,14.93
2019-04-29T05:54:17.731Z,13.83
2019-04-29T05:56:49.767Z,13.90
2019-04-29T05:59:31.824Z,12.30
2019-04-29T06:07:16.846Z,12.07
2019-04-29T06:09:34.915Z,11.90
2019-04-29T06:12:29.364Z,15.38
2019-04-29T06:15:03.343Z,14.68
2019-04-29T06:17:46.350Z,13.25
2019-04-29T06:20:32.326Z,13.43
2019-04-29T06:23:23.190Z,14.00
2019-04-29T06:25:54.166Z,12.33
2019-04-29T06:28:26.350Z,12.53
2019-04-29T06:30:58.919Z,12.47
2019-04-29T06:33:30.967Z,13.10
2019-04-29T06:36:01.420Z,12.47
2019-04-29T06:38:31.822Z,12.58
2019-04-29T06:41:05.448Z,12.95
2019-04-29T06:43:34.213Z,12.43
2019-04-29T06:46:04.952Z,12.47
2019-04-29T06:48:35.338Z,16.85
2019-04-29T06:52:11.486Z,11.63
2019-04-29T06:54:48.324Z,10.68
2019-04-29T06:57:25.342Z,9.10
2019-04-29T06:59:59.098Z,9.28
2019-04-29T07:02:45.528Z,9.43
2019-04-29T07:05:19.202Z,8.98
2019-04-29T07:07:53.878Z,10.45
2019-04-29T07:10:29.482Z,10.05
2019-04-29T07:13:07.459Z,9.58
2019-04-29T07:15:37.964Z,10.65
2019-04-29T07:18:11.442Z,10.65
2019-04-29T07:20:44.713Z,12.98
2019-04-29T07:23:35.264Z,12.90
2019-04-29T07:26:05.286Z,13.13
2019-04-29T07:28:36.152Z,12.90
2019-04-29T07:31:10.031Z,12.93
2019-04-29T07:33:39.403Z,12.23
2019-04-29T07:36:11.282Z,12.23
2019-04-29T07:38:46.257Z,12.53
2019-04-29T07:41:18.457Z,13.47
2019-04-29T07:43:46.207Z,12.10
2019-04-29T07:46:21.346Z,12.10
2019-04-29T07:49:01.502Z,11.88
2019-04-29T07:51:24.052Z,12.30
2019-04-29T07:53:54.392Z,12.43
2019-04-29T07:56:24.799Z,12.33
2019-04-29T07:58:58.986Z,11.83
2019-04-29T08:01:27.218Z,11.55
2019-04-29T08:03:57.554Z,11.00
2019-04-29T08:06:28.435Z,12.00
2019-04-29T08:09:07.052Z,10.65
2019-04-29T08:11:38.820Z,10.95
2019-04-29T08:17:42.940Z,9.98
2019-04-29T08:20:14.917Z,11.55
2019-04-29T08:22:45.681Z,11.60
2019-04-29T08:25:16.062Z,11.60
2019-04-29T08:27:50.822Z,12.37
2019-04-29T08:30:22.928Z,13.43
2019-04-29T08:32:53.618Z,12.80
2019-04-29T08:35:24.124Z,12.70
2019-04-29T08:37:54.668Z,14.85
2019-04-29T08:40:27.994Z,13.08
2019-04-29T08:43:00.040Z,11.90
2019-04-29T08:45:39.007Z,13.80
2019-04-29T08:48:13.808Z,12.53
2019-04-29T08:50:44.295Z,11.30
2019-04-29T08:53:14.844Z,10.45
2019-04-29T08:55:45.229Z,9.65
2019-04-29T08:58:15.936Z,8.38
2019-04-29T09:00:46.490Z,8.05
2019-04-29T09:03:18.860Z,7.83
2019-04-29T09:06:04.282Z,7.60
2019-04-29T09:08:21.277Z,7.85
2019-04-29T09:10:51.766Z,7.70
2019-04-29T09:13:22.230Z,7.87
2019-04-29T09:15:52.652Z,7.35
2019-04-29T09:18:23.077Z,6.47
2019-04-29T09:20:53.447Z,7.90
2019-04-29T09:23:34.442Z,6.45
2019-04-29T09:26:15.786Z,7.33
2019-04-29T09:28:49.599Z,7.75
2019-04-29T09:31:18.791Z,7.92
2019-04-29T09:33:51.009Z,7.97
2019-04-29T09:36:22.970Z,6.97
2019-04-29T09:38:53.401Z,6.50
2019-04-29T09:41:35.028Z,7.25
2019-04-29T09:44:07.698Z,6.78
2019-04-29T09:46:38.061Z,6.08
2019-04-29T09:49:17.458Z,6.12
2019-04-29T09:51:47.986Z,4.85
2019-04-29T09:54:21.086Z,5.53
2019-04-29T09:56:51.587Z,7.53
2019-04-29T09:59:23.619Z,6.57
2019-04-29T10:02:10.967Z,7.77
2019-04-29T10:04:56.443Z,8.03
2019-04-29T10:07:18.031Z,7.57
2019-04-29T10:09:56.951Z,10.65
2019-04-29T10:12:21.020Z,15.07
2019-04-29T10:14:51.648Z,9.27
2019-04-29T10:17:29.753Z,10.20
2019-04-29T10:20:01.884Z,10.97
2019-04-29T10:22:32.527Z,6.40
2019-04-29T10:25:03.022Z,6.23
2019-04-29T10:27:33.527Z,5.70
2019-04-29T10:30:08.460Z,14.68
2019-04-29T10:32:42.500Z,8.40
2019-04-29T10:35:11.390Z,7.37
2019-04-29T10:37:43.827Z,8.13
2019-04-29T10:40:27.601Z,7.22
2019-04-29T10:42:59.621Z,6.50
2019-04-29T10:45:48.017Z,5.97
2019-04-29T10:48:23.914Z,8.55
2019-04-29T10:50:58.758Z,9.10
2019-04-29T10:53:29.164Z,12.95
2019-04-29T10:56:00.990Z,12.83
2019-04-29T10:58:35.680Z,14.10
2019-04-29T11:01:29.202Z,15.37
2019-04-29T11:04:00.708Z,15.97
2019-04-29T11:06:31.550Z,15.53
2019-04-29T11:09:14.334Z,16.13
2019-04-29T11:11:46.075Z,16.37
2019-04-29T11:14:16.641Z,17.57
2019-04-29T11:16:47.940Z,17.10
2019-04-29T11:19:18.352Z,17.40
2019-04-29T11:21:49.060Z,18.43
2019-04-29T11:24:21.181Z,17.90
2019-04-29T11:26:53.268Z,16.80
2019-04-29T11:29:27.344Z,17.13
2019-04-29T11:31:57.562Z,16.97
2019-04-29T11:34:35.863Z,16.73
2019-04-29T11:37:13.738Z,16.60
2019-04-29T11:39:46.090Z,17.43
2019-04-29T11:42:15.018Z,17.53
2019-04-29T11:44:45.414Z,18.00
2019-04-29T11:47:15.903Z,18.03
2019-04-29T11:49:51.029Z,18.13
2019-04-29T11:52:23.737Z,19.87
2019-04-29T11:54:53.812Z,20.20
2019-04-29T11:57:41.032Z,22.30
2019-04-29T12:00:23.494Z,24.53
2019-04-29T12:03:07.602Z,18.63
2019-04-29T12:05:40.096Z,15.97
2019-04-29T12:08:17.062Z,16.67
2019-04-29T12:10:48.611Z,16.27
2019-04-29T12:13:27.065Z,15.93
2019-04-29T12:15:56.490Z,16.07
2019-04-29T12:18:28.418Z,17.63
2019-04-29T12:21:06.446Z,15.70
2019-04-29T12:23:36.852Z,15.80
2019-04-29T12:26:07.627Z,17.00
2019-04-29T12:28:42.263Z,15.67
2019-04-29T12:31:34.101Z,14.00
2019-04-29T12:34:22.072Z,13.53
2019-04-29T12:36:56.825Z,13.80
2019-04-29T12:39:43.357Z,13.47
2019-04-29T12:42:24.993Z,13.10
2019-04-29T12:44:57.082Z,15.35
2019-04-29T12:47:34.887Z,13.33
2019-04-29T12:50:10.019Z,13.00
2019-04-29T12:52:40.550Z,13.53
2019-04-29T12:55:20.384Z,13.10
2019-04-29T12:57:45.601Z,12.80
2019-04-29T13:00:23.457Z,11.87
2019-04-29T13:03:11.944Z,10.60
2019-04-29T13:06:02.527Z,10.60
2019-04-29T13:08:39.728Z,9.73
2019-04-29T13:11:10.095Z,9.53
2019-04-29T13:13:40.489Z,9.20
2019-04-29T13:16:20.075Z,9.00
2019-04-29T13:19:12.241Z,8.90
2019-04-29T13:21:40.564Z,8.90
2019-04-29T13:24:22.362Z,8.63
2019-04-29T13:26:49.317Z,9.03
2019-04-29T13:29:27.422Z,9.60
2019-04-29T13:32:25.245Z,8.80
2019-04-29T13:34:50.808Z,8.30
2019-04-29T13:37:25.068Z,8.97
2019-04-29T13:39:57.825Z,10.37
2019-04-29T13:42:29.895Z,11.10
2019-04-29T13:45:12.160Z,11.13
2019-04-29T13:47:50.371Z,11.00
2019-04-29T13:50:39.972Z,8.97
2019-04-29T13:53:11.538Z,8.60
2019-04-29T13:56:09.889Z,9.27
2019-04-29T13:58:27.071Z,8.87
2019-04-29T14:01:03.707Z,9.30
2019-04-29T14:03:52.154Z,9.73
2019-04-29T14:06:24.273Z,9.43
2019-04-29T14:08:59.999Z,9.00
2019-04-29T14:11:28.553Z,9.20
2019-04-29T14:14:00.439Z,9.37
2019-04-29T14:16:33.488Z,10.03
2019-04-29T14:19:08.417Z,9.60
2019-04-29T14:21:37.382Z,9.30
2019-04-29T14:24:09.480Z,9.70
2019-04-29T14:26:42.036Z,9.50
2019-04-29T14:29:12.218Z,9.87
2019-04-29T14:31:42.629Z,10.67
2019-04-29T14:34:23.756Z,10.57
2019-04-29T14:37:18.333Z,10.63
2019-04-29T14:39:37.077Z,9.53
2019-04-29T14:42:25.661Z,10.20
2019-04-29T14:45:01.936Z,11.43
2019-04-29T14:47:34.055Z,12.20
2019-04-29T14:50:10.725Z,11.80
2019-04-29T14:52:40.276Z,12.70
2019-04-29T14:55:10.781Z,12.37
2019-04-29T14:57:41.269Z,13.63
2019-04-29T15:00:23.312Z,15.13
2019-04-29T15:02:55.907Z,13.87
2019-04-29T15:05:26.399Z,12.73
2019-04-29T15:07:59.786Z,13.27
2019-04-29T15:10:36.776Z,12.33
2019-04-29T15:13:20.657Z,13.53
2019-04-29T15:15:42.914Z,12.73
2019-04-29T15:18:38.823Z,12.80
2019-04-29T15:21:01.877Z,13.20
2019-04-29T15:23:32.962Z,12.53
2019-04-29T15:26:03.577Z,13.77
2019-04-29T15:28:35.825Z,13.27
2019-04-29T15:31:12.617Z,13.70
2019-04-29T15:33:40.925Z,13.87
2019-04-29T15:36:11.318Z,13.40
2019-04-29T15:38:41.788Z,15.13
2019-04-29T15:41:12.253Z,14.03
2019-04-29T15:43:47.842Z,14.67
2019-04-29T15:46:15.856Z,25.50
2019-04-29T15:48:46.365Z,31.27
2019-04-29T15:51:16.859Z,26.67
2019-04-29T15:53:47.487Z,27.13
2019-04-29T15:56:28.463Z,17.03
2019-04-29T15:58:50.624Z,17.13
2019-04-29T16:01:32.251Z,17.27
2019-04-29T16:04:04.655Z,15.67
2019-04-29T16:06:55.476Z,15.67
2019-04-29T16:09:50.603Z,15.80
2019-04-29T16:12:16.489Z,15.53
2019-04-29T16:14:49.140Z,15.97
2019-04-29T16:17:20.603Z,15.77
2019-04-29T16:19:51.547Z,16.93
2019-04-29T16:23:23.580Z,15.97
2019-04-29T16:25:16.928Z,16.40
2019-04-29T16:27:52.989Z,17.07
2019-04-29T16:30:20.397Z,16.10
2019-04-29T16:32:51.001Z,15.60
2019-04-29T16:35:23.659Z,15.67
2019-04-29T16:37:53.577Z,16.23
2019-04-29T16:40:25.957Z,16.47
2019-04-29T16:43:09.683Z,17.27
2019-04-29T16:45:51.667Z,17.63
2019-04-29T16:48:19.933Z,18.03
2019-04-29T16:50:50.457Z,17.90
2019-04-29T16:53:21.005Z,17.10
2019-04-29T16:55:51.377Z,17.80
2019-04-29T16:58:21.988Z,17.93
2019-04-29T17:00:54.851Z,17.87
2019-04-29T17:03:25.215Z,17.73
2019-04-29T17:05:56.592Z,17.83
2019-04-29T17:08:28.944Z,16.63
2019-04-29T17:11:01.115Z,17.87
2019-04-29T17:13:31.590Z,17.27
2019-04-29T17:16:02.117Z,16.73
2019-04-29T17:18:32.620Z,17.07
2019-04-29T17:21:07.071Z,16.43
2019-04-29T17:23:35.232Z,17.50
2019-04-29T17:26:06.496Z,17.83
2019-04-29T17:28:47.506Z,17.83
2019-04-29T17:31:20.181Z,17.60
2019-04-29T17:33:59.809Z,16.93
2019-04-29T17:36:33.519Z,18.37
2019-04-29T17:39:07.806Z,18.13
2019-04-29T17:41:38.282Z,17.07
2019-04-29T17:44:18.776Z,16.67
2019-04-29T17:46:59.433Z,16.00
2019-04-29T17:49:34.436Z,16.70
2019-04-29T17:52:06.765Z,15.87
2019-04-29T17:54:40.275Z,16.83
2019-04-29T17:57:27.832Z,17.27
2019-04-29T17:59:48.910Z,16.50
2019-04-29T18:02:35.978Z,15.40
2019-04-29T18:05:20.747Z,15.93
2019-04-29T18:08:05.318Z,16.90
2019-04-29T18:10:40.316Z,15.90
2019-04-29T18:13:12.343Z,14.67
2019-04-29T18:16:00.081Z,14.87
2019-04-29T18:18:21.537Z,14.30
2019-04-29T18:21:09.939Z,15.03
2019-04-29T18:24:01.475Z,14.30
2019-04-29T18:26:35.718Z,14.53
2019-04-29T18:29:08.159Z,14.87
2019-04-29T18:38:07.483Z,13.37
2019-04-29T18:40:41.877Z,14.00
2019-04-29T18:43:10.872Z,13.83
2019-04-29T18:45:53.022Z,13.13
2019-04-29T18:48:31.721Z,14.40
2019-04-29T18:51:05.624Z,13.80
2019-04-29T18:53:39.127Z,15.83
2019-04-29T18:56:14.900Z,14.00
2019-04-29T18:58:50.444Z,14.10
2019-04-29T19:01:24.138Z,14.40
2019-04-29T19:03:58.510Z,14.57
2019-04-29T19:06:33.452Z,14.33
2019-04-29T19:09:17.192Z,14.87
2019-04-29T19:11:37.705Z,14.80
2019-04-29T19:14:08.208Z,14.93
2019-04-29T19:16:39.537Z,15.00
2019-04-29T19:19:15.379Z,15.20
2019-04-29T19:21:47.483Z,14.00
2019-04-29T19:24:18.447Z,15.53
2019-04-29T19:26:48.889Z,15.13
2019-04-29T19:29:19.667Z,16.10
2019-04-29T19:31:50.092Z,15.53
2019-04-29T19:34:20.707Z,15.37
2019-04-29T19:36:55.767Z,15.37
2019-04-29T19:39:25.148Z,15.80
2019-04-29T19:41:55.738Z,15.37
2019-04-29T19:44:33.311Z,15.50
2019-04-29T19:46:59.120Z,17.20
2019-04-29T19:49:29.884Z,18.17
2019-04-29T19:52:01.909Z,18.03
2019-04-29T19:54:32.461Z,16.97
2019-04-29T19:57:06.138Z,16.40
2019-04-29T19:59:36.589Z,16.00
2019-04-29T20:02:11.151Z,16.63
2019-04-29T20:04:54.161Z,19.03
2019-04-29T20:07:27.389Z,23.57
2019-04-29T20:10:03.909Z,20.57
2019-04-29T20:12:31.095Z,28.20
2019-04-29T20:15:02.688Z,20.13
2019-04-29T20:17:38.534Z,20.27
2019-04-29T20:20:10.995Z,20.13
2019-04-29T20:22:43.518Z,18.80
2019-04-29T20:25:13.828Z,18.00
2019-04-29T20:27:45.858Z,21.60
2019-04-29T20:30:20.730Z,29.13
2019-04-29T20:32:49.331Z,21.90
2019-04-29T20:35:19.875Z,23.30
2019-04-29T20:37:55.459Z,21.53
2019-04-29T20:40:22.566Z,22.00
2019-04-29T20:42:53.115Z,22.70
2019-04-29T20:45:27.282Z,21.87
2019-04-29T20:47:56.207Z,19.73
2019-04-29T20:50:27.190Z,21.90
2019-04-29T20:53:02.254Z,20.40
2019-04-29T20:55:35.912Z,19.83
2019-04-29T20:58:06.383Z,21.07
2019-04-29T21:00:37.852Z,20.73
2019-04-29T21:03:09.487Z,20.87
2019-04-29T21:05:49.602Z,21.97
2019-04-29T21:08:16.339Z,22.80
2019-04-29T21:10:48.224Z,21.37
2019-04-29T21:13:22.149Z,22.70
2019-04-29T21:16:06.811Z,22.17
2019-04-29T21:18:38.831Z,22.90
2019-04-29T21:21:11.374Z,23.60
2019-04-29T21:23:45.748Z,23.40
2019-04-29T21:26:16.603Z,23.30
2019-04-29T21:28:55.545Z,24.03
2019-04-29T21:31:25.834Z,24.63
2019-04-29T21:34:05.514Z,25.17
2019-04-29T21:36:55.837Z,24.37
2019-04-29T21:39:44.641Z,24.10
2019-04-29T21:42:36.988Z,25.10
2019-04-29T21:45:12.120Z,24.43
2019-04-29T21:47:51.825Z,25.47
2019-04-29T21:50:17.259Z,25.57
2019-04-29T21:52:48.178Z,27.60
2019-04-29T21:55:24.876Z,28.23
2019-04-29T21:57:54.510Z,28.23
2019-04-29T22:00:28.527Z,28.00
2019-04-29T22:03:05.337Z,28.97
2019-04-29T22:05:37.717Z,29.17
2019-04-29T22:08:08.381Z,30.73
2019-04-29T22:10:38.965Z,32.60
2019-04-29T22:13:09.798Z,31.07
2019-04-29T22:15:42.421Z,32.27
2019-04-29T22:18:13.949Z,30.27
2019-04-29T22:20:44.528Z,31.00
2019-04-29T22:23:17.159Z,32.97
2019-04-29T22:25:47.298Z,38.90
2019-04-29T22:28:19.711Z,35.43
2019-04-29T22:30:54.694Z,32.97
2019-04-29T22:33:22.157Z,34.77
2019-04-29T22:35:52.540Z,33.00
2019-04-29T22:38:24.854Z,33.93
2019-04-29T22:40:56.639Z,33.17
2019-04-29T22:43:44.642Z,33.40
2019-04-29T22:46:17.533Z,33.57
2019-04-29T22:48:48.858Z,36.45
2019-04-29T22:51:19.465Z,34.80
2019-04-29T22:53:50.051Z,33.47
2019-04-29T22:56:20.490Z,35.00
2019-04-29T22:58:51.796Z,34.33
2019-04-29T23:01:22.243Z,34.77
2019-04-29T23:03:52.727Z,33.37
2019-04-29T23:06:23.290Z,35.27
2019-04-29T23:08:53.726Z,34.30
2019-04-29T23:11:24.257Z,34.97
2019-04-29T23:13:55.435Z,32.47
2019-04-29T23:16:26.172Z,32.80
2019-04-29T23:18:56.763Z,33.60
2019-04-29T23:21:43.397Z,34.60
2019-04-29T23:24:17.295Z,33.73
2019-04-29T23:26:47.173Z,41.15
2019-04-29T23:29:17.565Z,34.97
2019-04-29T23:31:48.088Z,33.83
2019-04-29T23:34:18.578Z,34.53
2019-04-29T23:36:50.169Z,33.17
2019-04-29T23:39:20.672Z,33.63
2019-04-29T23:41:51.004Z,33.63
2019-04-29T23:44:21.467Z,35.80
2019-04-29T23:46:51.881Z,35.77
2019-04-29T23:49:22.380Z,36.75
2019-04-29T23:51:52.828Z,34.00
2019-04-29T23:54:25.184Z,35.77
2019-04-29T23:57:03.109Z,33.93
2019-04-29T23:59:57.200Z,33.57
